Time;durP1;ratioP1;P1;durP2;ratioP2;P2;SDS_P1;SDS_P2;PMS_P1;PMS_P2;Temp;Humidity;BMP_temperature;BMP_pressure;BME280_temperature;BME280_humidity;BME280_pressure;Samples;Min_cycle;Max_cycle;Signal;HPM_P1;HPM_P2
2023/12/09 00:00:19;;;;;;;;;;;;;;;-144.99;100.00;52651.94;5113363;27;20407;-68
2023/12/09 00:02:46;;;;;;;;;;;;;;;-144.99;100.00;52698.81;5115964;27;19966;-68
2023/12/09 00:05:12;;;;;;;;;;;;;;;-144.99;100.00;52641.72;5140829;27;19923;-69
2023/12/09 00:07:39;;;;;;;;;;;;;;;-144.99;100.00;52676.38;5120137;27;19928;-68
2023/12/09 00:10:07;;;;;;;;;;;;;;;-144.99;100.00;52709.00;5115050;27;20019;-69
2023/12/09 00:12:33;;;;;;;;;;;;;;;-144.99;100.00;52639.69;5122965;27;19927;-69
2023/12/09 00:15:00;;;;;;;;;;;;;;;-144.99;100.00;52694.72;5122141;27;19980;-69
2023/12/09 00:17:27;;;;;;;;;;;;;;;-144.99;100.00;52660.09;5117500;27;19966;-70
2023/12/09 00:19:53;;;;;;;;;;;;;;;-144.99;100.00;52656.00;5111589;27;20027;-69
2023/12/09 00:22:19;;;;;;;;;;;;;;;-144.99;100.00;52656.00;5111630;27;20366;-68
2023/12/09 00:24:46;;;;;;;;;;;;;;;-144.99;100.00;52676.38;4766249;27;10000571;-68
2023/12/09 00:27:14;;;;;;;;;;;;;;;-144.99;100.00;52688.63;5112153;27;20339;-69
2023/12/09 00:29:40;;;;;;;;;;;;;;;-144.99;100.00;52647.84;5114525;27;19978;-69
2023/12/09 00:32:07;;;;;;;;;;;;;;;-144.99;100.00;52631.53;5124724;27;19934;-70
2023/12/09 00:34:34;;;;;;;;;;;;;;;-144.99;100.00;52680.47;5119048;27;19930;-68
2023/12/09 00:37:00;;;;;;;;;;;;;;;-144.99;100.00;52676.38;5125441;27;20019;-68
2023/12/09 00:39:27;;;;;;;;;;;;;;;-144.99;100.00;52653.97;5114503;27;19998;-66
2023/12/09 00:41:53;;;;;;;;;;;;;;;-144.99;100.00;52631.53;5109874;27;19992;-71
2023/12/09 00:44:21;;;;;;;;;;;;;;;-144.99;100.00;52656.00;5118581;27;19924;-72
2023/12/09 00:46:47;;;;;;;;;;;;;;;-144.99;100.00;52635.63;5124634;27;20027;-71
2023/12/09 00:49:14;;;;;;;;;;;;;;;-144.99;100.00;52647.84;5112801;27;19931;-71
2023/12/09 00:51:40;;;;;;;;;;;;;;;-144.99;100.00;52676.38;5113672;27;20019;-70
2023/12/09 00:54:07;;;;;;;;;;;;;;;-144.99;100.00;52647.84;5114366;27;19927;-70
2023/12/09 00:56:33;;;;;;;;;;;;;;;-144.99;100.00;52704.94;5117272;27;19978;-70
2023/12/09 00:59:00;;;;;;;;;;;;;;;-144.99;100.00;52668.22;5114552;27;20446;-70
2023/12/09 01:01:28;;;;;;;;;;;;;;;-144.99;100.00;52704.94;5120754;27;19959;-71
2023/12/09 01:03:54;;;;;;;;;;;;;;;-144.99;100.00;52664.16;5114820;27;20506;-70
2023/12/09 01:06:21;;;;;;;;;;;;;;;-144.99;100.00;52660.09;5115681;28;19927;-70
2023/12/09 01:08:47;;;;;;;;;;;;;;;-144.99;100.00;52668.22;5116387;27;20188;-71
2023/12/09 01:11:14;;;;;;;;;;;;;;;-144.99;100.00;52660.09;5119161;27;19979;-70
2023/12/09 01:13:40;;;;;;;;;;;;;;;-144.99;100.00;52676.38;5125568;27;19924;-71
2023/12/09 01:16:07;;;;;;;;;;;;;;;-144.99;100.00;52692.69;5120458;27;20359;-70
2023/12/09 01:18:35;;;;;;;;;;;;;;;-144.99;100.00;52668.22;5123149;27;20010;-70
2023/12/09 01:21:02;;;;;;;;;;;;;;;-144.99;100.00;52660.09;5120926;27;19973;-70
2023/12/09 01:23:28;;;;;;;;;;;;;;;-144.99;100.00;52672.31;5123906;27;19923;-70
2023/12/09 01:25:55;;;;;;;;;;;;;;;-144.99;100.00;52656.00;5138506;27;20311;-70
2023/12/09 01:28:21;;;;;;;;;;;;;;;-144.99;100.00;52676.38;5144895;27;19931;-72
2023/12/09 01:30:48;;;;;;;;;;;;;;;-144.99;100.00;52639.69;5120190;27;19974;-69
2023/12/09 01:33:14;;;;;;;;;;;;;;;-144.99;100.00;52635.63;5120767;27;19974;-68
2023/12/09 01:35:42;;;;;;;;;;;;;;;-144.99;100.00;52688.63;5124584;27;19962;-68
2023/12/09 01:38:09;;;;;;;;;;;;;;;-144.99;100.00;52660.09;5123429;27;19971;-68
2023/12/09 01:40:35;;;;;;;;;;;;;;;-144.99;100.00;52660.09;5120661;27;20349;-69
2023/12/09 01:43:02;;;;;;;;;;;;;;;-144.99;100.00;52668.22;5122870;27;19927;-67
2023/12/09 01:45:28;;;;;;;;;;;;;;;-144.99;100.00;52647.84;5126051;27;19975;-68
2023/12/09 01:47:55;;;;;;;;;;;;;;;-144.99;100.00;52643.78;5122787;27;19931;-69
2023/12/09 01:50:21;;;;;;;;;;;;;;;-144.99;100.00;52666.19;5122328;27;20002;-67
2023/12/09 01:52:49;;;;;;;;;;;;;;;-144.99;100.00;52639.69;5121754;27;19927;-69
2023/12/09 01:55:16;;;;;;;;;;;;;;;-144.99;100.00;52670.28;5121145;27;20035;-69
2023/12/09 01:57:42;;;;;;;;;;;;;;;-144.99;100.00;52627.47;5115699;27;19984;-69
2023/12/09 02:00:10;;;;;;;;;;;;;;;-144.99;100.00;52676.38;5118403;27;20010;-69
2023/12/09 02:02:36;;;;;;;;;;;;;;;-144.99;100.00;52647.84;5115208;27;19928;-68
2023/12/09 02:05:03;;;;;;;;;;;;;;;-144.99;100.00;52656.00;5125542;27;19939;-68
2023/12/09 02:07:30;;;;;;;;;;;;;;;-144.99;100.00;52647.84;5126207;27;19970;-68
2023/12/09 02:09:57;;;;;;;;;;;;;;;-144.99;100.00;52688.63;5126898;27;19928;-70
2023/12/09 02:12:27;;;;;;;;;;;;;;;-144.99;100.00;52670.28;5121326;27;19959;-72
2023/12/09 02:14:58;;;;;;;;;;;;;;;-144.99;100.00;52672.31;5121864;27;19935;-73
2023/12/09 02:17:30;;;;;;;;;;;;;;;-144.99;100.00;52668.22;5131782;27;20401;-72
2023/12/09 02:19:56;;;;;;;;;;;;;;;-144.99;100.00;52670.28;5120408;27;19976;-69
2023/12/09 02:22:23;;;;;;;;;;;;;;;-144.99;100.00;52619.31;5123697;27;19984;-70
2023/12/09 02:24:51;;;;;;;;;;;;;;;-144.99;100.00;52629.50;5117448;27;19958;-70
2023/12/09 02:27:21;;;;;;;;;;;;;;;-144.99;100.00;52607.09;5123265;27;19927;-71
2023/12/09 02:29:51;;;;;;;;;;;;;;;-144.99;100.00;52676.38;5130640;27;20274;-72
2023/12/09 02:32:20;;;;;;;;;;;;;;;-144.99;100.00;52647.84;5128551;27;19995;-73
2023/12/09 02:34:47;;;;;;;;;;;;;;;-144.99;100.00;52627.47;5119366;27;20014;-70
2023/12/09 02:37:14;;;;;;;;;;;;;;;-144.99;100.00;52645.81;5124319;27;19966;-72
2023/12/09 02:39:42;;;;;;;;;;;;;;;-144.99;100.00;52627.47;5122525;27;20014;-72
2023/12/09 02:42:10;;;;;;;;;;;;;;;-144.99;100.00;52627.47;5117236;27;20025;-72
2023/12/09 02:44:37;;;;;;;;;;;;;;;-144.99;100.00;52656.00;5124307;27;20361;-73
2023/12/09 02:47:04;;;;;;;;;;;;;;;-144.99;100.00;52639.69;5124471;27;19998;-70
2023/12/09 02:49:30;;;;;;;;;;;;;;;-144.99;100.00;52631.53;5121159;27;20437;-72
2023/12/09 02:51:57;;;;;;;;;;;;;;;-144.99;100.00;52651.94;5121829;27;19927;-73
2023/12/09 02:54:23;;;;;;;;;;;;;;;-144.99;100.00;52664.16;5121380;27;20335;-73
2023/12/09 02:56:50;;;;;;;;;;;;;;;-144.99;100.00;52631.53;5117783;27;19970;-71
2023/12/09 02:59:18;;;;;;;;;;;;;;;-144.99;100.00;52668.22;5118098;27;19963;-73
2023/12/09 03:01:44;;;;;;;;;;;;;;;-144.99;100.00;52631.53;5118513;27;20365;-71
2023/12/09 03:04:11;;;;;;;;;;;;;;;-144.99;100.00;52647.84;5113101;28;20361;-71
2023/12/09 03:06:37;;;;;;;;;;;;;;;-144.99;100.00;52668.22;5112579;27;19923;-72
2023/12/09 03:09:04;;;;;;;;;;;;;;;-144.99;100.00;52670.28;5124090;27;19988;-74
2023/12/09 03:11:30;;;;;;;;;;;;;;;-144.99;100.00;52631.53;5122274;27;19968;-73
2023/12/09 03:13:57;;;;;;;;;;;;;;;-144.99;100.00;52615.25;5119952;27;20366;-73
2023/12/09 03:16:25;;;;;;;;;;;;;;;-144.99;100.00;52643.78;5122958;27;19962;-73
2023/12/09 03:18:51;;;;;;;;;;;;;;;-144.99;100.00;52647.84;5128876;27;19930;-72
2023/12/09 03:21:18;;;;;;;;;;;;;;;-144.99;100.00;52629.50;5114886;27;19932;-72
2023/12/09 03:23:44;;;;;;;;;;;;;;;-144.99;100.00;52627.47;5127267;27;20006;-71
2023/12/09 03:26:14;;;;;;;;;;;;;;;-144.99;100.00;52668.22;5116068;27;19980;-74
2023/12/09 03:28:41;;;;;;;;;;;;;;;-144.99;100.00;52627.47;5125621;27;19954;-71
2023/12/09 03:31:07;;;;;;;;;;;;;;;-144.99;100.00;52637.66;5139644;27;19930;-75
2023/12/09 03:33:35;;;;;;;;;;;;;;;-144.99;100.00;52645.81;5126492;27;20373;-75
2023/12/09 03:36:01;;;;;;;;;;;;;;;-144.99;100.00;52664.16;5119328;27;20335;-75
2023/12/09 03:38:28;;;;;;;;;;;;;;;-144.99;100.00;52658.03;5127278;27;20448;-75
2023/12/09 03:40:55;;;;;;;;;;;;;;;-144.99;100.00;52643.78;5125750;27;19969;-74
2023/12/09 03:43:21;;;;;;;;;;;;;;;-144.99;100.00;52627.47;5118317;27;19966;-75
2023/12/09 03:45:48;;;;;;;;;;;;;;;-144.99;100.00;52651.94;5122312;27;19923;-75
2023/12/09 03:48:14;;;;;;;;;;;;;;;-144.99;100.00;52627.47;5116743;27;20480;-76
2023/12/09 03:50:42;;;;;;;;;;;;;;;-144.99;100.00;52619.31;5127991;27;19924;-76
2023/12/09 03:53:09;;;;;;;;;;;;;;;-144.99;100.00;52653.97;5114642;27;19927;-75
2023/12/09 03:55:35;;;;;;;;;;;;;;;-144.99;100.00;52649.88;5132798;27;19923;-75
2023/12/09 03:58:02;;;;;;;;;;;;;;;-144.99;100.00;52615.25;5125392;27;20019;-76
2023/12/09 04:00:29;;;;;;;;;;;;;;;-144.99;100.00;52619.31;5115608;27;19988;-76
2023/12/09 04:02:55;;;;;;;;;;;;;;;-144.99;100.00;52647.84;5125422;27;19958;-78
2023/12/09 04:05:22;;;;;;;;;;;;;;;-144.99;100.00;52625.44;5140068;27;19966;-77
2023/12/09 04:07:51;;;;;;;;;;;;;;;-144.99;100.00;52629.50;5112684;28;19930;-76
2023/12/09 04:10:17;;;;;;;;;;;;;;;-144.99;100.00;52664.16;5147686;27;19924;-76
2023/12/09 04:12:44;;;;;;;;;;;;;;;-144.99;100.00;52619.31;5154117;27;19923;-74
2023/12/09 04:15:11;;;;;;;;;;;;;;;-144.99;100.00;52651.94;5131482;27;19970;-75
2023/12/09 04:17:37;;;;;;;;;;;;;;;-144.99;100.00;52623.38;5131586;27;19933;-76
2023/12/09 04:20:05;;;;;;;;;;;;;;;-144.99;100.00;52651.94;5116116;27;20389;-75
2023/12/09 04:22:31;;;;;;;;;;;;;;;-144.99;100.00;52615.25;5129259;27;19980;-73
2023/12/09 04:25:00;;;;;;;;;;;;;;;-144.99;100.00;52643.78;5131148;27;19927;-68
2023/12/09 04:27:26;;;;;;;;;;;;;;;-144.99;100.00;52598.94;5115251;27;19928;-68
2023/12/09 04:29:53;;;;;;;;;;;;;;;-144.99;100.00;52635.63;5115093;27;19963;-68
2023/12/09 04:32:19;;;;;;;;;;;;;;;-144.99;100.00;52645.81;5120258;27;19927;-70
2023/12/09 04:34:46;;;;;;;;;;;;;;;-144.99;100.00;52615.25;5119209;27;19924;-69
2023/12/09 04:37:12;;;;;;;;;;;;;;;-144.99;100.00;52641.72;5121813;27;19930;-70
2023/12/09 04:39:39;;;;;;;;;;;;;;;-144.99;100.00;52643.78;5110963;27;19963;-69
2023/12/09 04:42:07;;;;;;;;;;;;;;;-144.99;100.00;52611.16;5123324;27;19924;-69
2023/12/09 04:44:33;;;;;;;;;;;;;;;-144.99;100.00;52623.38;5127946;27;19927;-69
2023/12/09 04:46:59;;;;;;;;;;;;;;;-144.99;100.00;52664.16;5116289;27;20448;-69
2023/12/09 04:49:26;;;;;;;;;;;;;;;-144.99;100.00;52656.00;5120578;27;20014;-68
2023/12/09 04:51:52;;;;;;;;;;;;;;;-144.99;100.00;52607.09;5119823;27;19936;-68
2023/12/09 04:54:19;;;;;;;;;;;;;;;-144.99;100.00;52670.28;5128977;27;19973;-69
2023/12/09 04:56:45;;;;;;;;;;;;;;;-144.99;100.00;52647.84;5115809;27;19977;-68
2023/12/09 04:59:13;;;;;;;;;;;;;;;-144.99;100.00;52621.34;5115202;27;19959;-68
2023/12/09 05:01:40;;;;;;;;;;;;;;;-144.99;100.00;52676.38;5116602;27;20381;-67
2023/12/09 05:04:09;;;;;;;;;;;;;;;-144.99;100.00;52639.69;5110608;28;20220;-67
2023/12/09 05:06:35;;;;;;;;;;;;;;;-144.99;100.00;52578.53;5122758;28;20338;-66
2023/12/09 05:09:02;;;;;;;;;;;;;;;-144.99;100.00;52660.09;5115364;27;20014;-67
2023/12/09 05:11:29;;;;;;;;;;;;;;;-144.99;100.00;52668.22;5124051;27;19924;-66
2023/12/09 05:13:56;;;;;;;;;;;;;;;-144.99;100.00;52656.00;5123513;27;19971;-66
2023/12/09 05:16:23;;;;;;;;;;;;;;;-144.99;100.00;52643.78;5118555;27;19988;-66
2023/12/09 05:18:50;;;;;;;;;;;;;;;-144.99;100.00;52586.69;5129590;27;19962;-68
2023/12/09 05:21:17;;;;;;;;;;;;;;;-144.99;100.00;52664.16;5126604;27;20322;-66
2023/12/09 05:23:43;;;;;;;;;;;;;;;-144.99;100.00;52656.00;5115674;27;20272;-68
2023/12/09 05:26:10;;;;;;;;;;;;;;;-144.99;100.00;52611.16;5117883;28;20018;-70
2023/12/09 05:28:36;;;;;;;;;;;;;;;-144.99;100.00;52631.53;5120522;28;19923;-70
2023/12/09 05:31:03;;;;;;;;;;;;;;;-144.99;100.00;52635.63;5127011;27;20041;-70
2023/12/09 05:33:31;;;;;;;;;;;;;;;-144.99;100.00;52619.31;5135208;27;19924;-70
2023/12/09 05:35:57;;;;;;;;;;;;;;;-144.99;100.00;52668.22;5123703;27;19927;-70
2023/12/09 05:38:24;;;;;;;;;;;;;;;-144.99;100.00;52631.53;5115301;28;19934;-67
2023/12/09 05:40:50;;;;;;;;;;;;;;;-144.99;100.00;52619.31;5121183;27;20365;-67
2023/12/09 05:43:17;;;;;;;;;;;;;;;-144.99;100.00;52627.47;5124286;27;19994;-68
2023/12/09 05:45:43;;;;;;;;;;;;;;;-144.99;100.00;52615.25;5116332;28;19924;-68
2023/12/09 05:48:09;;;;;;;;;;;;;;;-144.99;100.00;52713.09;5119921;28;20033;-67
2023/12/09 05:50:37;;;;;;;;;;;;;;;-144.99;100.00;52643.78;5123647;27;19928;-67
2023/12/09 05:53:04;;;;;;;;;;;;;;;-144.99;100.00;52631.53;5118020;27;20384;-67
2023/12/09 05:55:30;;;;;;;;;;;;;;;-144.99;100.00;52588.75;5111942;27;20034;-68
2023/12/09 05:57:57;;;;;;;;;;;;;;;-144.99;100.00;52664.16;5115393;28;19971;-68
2023/12/09 06:00:23;;;;;;;;;;;;;;;-144.99;100.00;52631.53;5109180;27;20437;-68
2023/12/09 06:02:49;;;;;;;;;;;;;;;-144.99;100.00;52627.47;5121806;27;19932;-68
2023/12/09 06:05:16;;;;;;;;;;;;;;;-144.99;100.00;52586.69;5121079;27;20000;-70
2023/12/09 06:07:44;;;;;;;;;;;;;;;-144.99;100.00;52603.00;5119251;27;19923;-70
2023/12/09 06:10:10;;;;;;;;;;;;;;;-144.99;100.00;52641.72;5116694;27;20146;-70
2023/12/09 06:12:37;;;;;;;;;;;;;;;-144.99;100.00;52623.38;5120587;27;19923;-69
2023/12/09 06:15:04;;;;;;;;;;;;;;;-144.99;100.00;52631.53;5145767;27;19927;-71
2023/12/09 06:17:30;;;;;;;;;;;;;;;-144.99;100.00;52619.31;5138964;27;20074;-71
2023/12/09 06:19:56;;;;;;;;;;;;;;;-144.99;100.00;52631.53;5128875;27;19932;-72
2023/12/09 06:22:23;;;;;;;;;;;;;;;-144.99;100.00;52627.47;5114756;27;19984;-69
2023/12/09 06:24:51;;;;;;;;;;;;;;;-144.99;100.00;52647.84;5117174;27;19944;-70
2023/12/09 06:27:17;;;;;;;;;;;;;;;-144.99;100.00;52619.31;5116468;27;19976;-70
2023/12/09 06:29:44;;;;;;;;;;;;;;;-144.99;100.00;52664.16;5120688;22;20599;-70
2023/12/09 06:32:11;;;;;;;;;;;;;;;-144.99;100.00;52660.09;5030927;28;19983;-70
2023/12/09 06:34:37;;;;;;;;;;;;;;;-144.99;100.00;52662.13;5026474;28;19979;-70
2023/12/09 06:37:04;;;;;;;;;;;;;;;-144.99;100.00;52631.53;5030396;28;19972;-70
2023/12/09 06:39:30;;;;;;;;;;;;;;;-144.99;100.00;52692.69;5030868;28;20359;-70
2023/12/09 06:41:58;;;;;;;;;;;;;;;-144.99;100.00;52668.22;5031986;28;19991;-70
2023/12/09 06:44:25;;;;;;;;;;;;;;;-144.99;100.00;52627.47;5030758;28;19987;-70
2023/12/09 06:46:51;;;;;;;;;;;;;;;-144.99;100.00;52643.78;5030290;28;20048;-70
2023/12/09 06:49:18;;;;;;;;;;;;;;;-144.99;100.00;52623.38;5030339;28;20428;-70
2023/12/09 06:51:44;;;;;;;;;;;;;;;-144.99;100.00;52611.16;5030156;28;19978;-69
2023/12/09 06:54:11;;;;;;;;;;;;;;;-144.99;100.00;52635.63;5030228;28;19976;-68
2023/12/09 06:56:38;;;;;;;;;;;;;;;-144.99;100.00;52651.94;5030648;28;20095;-68
2023/12/09 06:59:05;;;;;;;;;;;;;;;-144.99;100.00;52639.69;5029964;28;19925;-68
2023/12/09 07:01:32;;;;;;;;;;;;;;;-144.99;100.00;52627.47;5030420;28;19982;-68
2023/12/09 07:03:58;;;;;;;;;;;;;;;-144.99;100.00;52594.84;5030085;28;20060;-69
2023/12/09 07:06:26;;;;;;;;;;;;;;;-144.99;100.00;52635.63;5030269;28;20418;-68
2023/12/09 07:08:53;;;;;;;;;;;;;;;-144.99;100.00;52633.59;5028662;28;20006;-69
2023/12/09 07:11:19;;;;;;;;;;;;;;;-144.99;100.00;52651.94;5030543;28;19995;-69
2023/12/09 07:13:46;;;;;;;;;;;;;;;-144.99;100.00;52623.38;5028830;28;19936;-69
2023/12/09 07:16:14;;;;;;;;;;;;;;;-144.99;100.00;52651.94;5028356;28;19928;-69
2023/12/09 07:18:43;;;;;;;;;;;;;;;-144.99;100.00;52672.31;5022781;28;19929;-70
2023/12/09 07:21:10;;;;;;;;;;;;;;;-144.99;100.00;52670.28;5027404;28;19929;-69
2023/12/09 07:23:36;;;;;;;;;;;;;;;-144.99;100.00;52668.22;5029360;28;20011;-68
2023/12/09 07:26:03;;;;;;;;;;;;;;;-144.99;100.00;52639.69;5026716;28;19935;-68
2023/12/09 07:28:30;;;;;;;;;;;;;;;-144.99;100.00;52641.72;5024683;28;19957;-68
2023/12/09 07:30:56;;;;;;;;;;;;;;;-144.99;100.00;52627.47;5027504;28;20316;-63
2023/12/09 07:33:24;;;;;;;;;;;;;;;-144.99;100.00;52635.63;5022644;28;20355;-62
2023/12/09 07:35:51;;;;;;;;;;;;;;;-144.99;100.00;52623.38;5027782;28;19925;-63
2023/12/09 07:38:17;;;;;;;;;;;;;;;-144.99;100.00;52635.63;5027064;28;19932;-63
2023/12/09 07:40:44;;;;;;;;;;;;;;;-144.99;100.00;52619.31;5029595;28;19947;-63
2023/12/09 07:43:09;;;;;;;;;;;;;;;-144.99;100.00;52590.78;5027583;28;20357;-63
2023/12/09 07:45:36;;;;;;;;;;;;;;;-144.99;100.00;52588.75;5027745;28;19929;-63
2023/12/09 07:48:03;;;;;;;;;;;;;;;-144.99;100.00;52615.25;5026174;28;19976;-64
2023/12/09 07:50:32;;;;;;;;;;;;;;;-144.99;100.00;52639.69;5028665;28;20001;-63
2023/12/09 07:52:59;;;;;;;;;;;;;;;-144.99;100.00;52619.31;5026588;28;19925;-63
2023/12/09 07:55:26;;;;;;;;;;;;;;;-144.99;100.00;52586.69;5026678;28;19937;-63
2023/12/09 07:57:52;;;;;;;;;;;;;;;-144.99;100.00;52664.16;5020498;28;20020;-64
2023/12/09 08:00:19;;;;;;;;;;;;;;;-144.99;100.00;52615.25;5023494;28;19960;-68
2023/12/09 08:02:45;;;;;;;;;;;;;;;-144.99;100.00;52603.00;5023683;28;19987;-68
2023/12/09 08:05:12;;;;;;;;;;;;;;;-144.99;100.00;52651.94;5026754;28;19929;-68
2023/12/09 08:07:40;;;;;;;;;;;;;;;-144.99;100.00;52645.81;5027703;28;20306;-68
2023/12/09 08:10:07;;;;;;;;;;;;;;;-144.99;100.00;52617.28;5028467;28;19925;-68
2023/12/09 08:12:33;;;;;;;;;;;;;;;-144.99;100.00;52635.63;5028786;28;20347;-68
2023/12/09 08:15:00;;;;;;;;;;;;;;;-144.99;100.00;52619.31;5021667;28;20379;-68
2023/12/09 08:17:26;;;;;;;;;;;;;;;-144.99;100.00;52619.31;5024797;28;20028;-69
2023/12/09 08:19:53;;;;;;;;;;;;;;;-144.99;100.00;52615.25;5025556;28;19984;-69
2023/12/09 08:22:19;;;;;;;;;;;;;;;-144.99;100.00;52645.81;5026859;28;20016;-69
2023/12/09 08:24:47;;;;;;;;;;;;;;;-144.99;100.00;52594.84;5027746;28;19983;-68
2023/12/09 08:27:14;;;;;;;;;;;;;;;-144.99;100.00;52635.63;5019301;28;20375;-69
2023/12/09 08:29:40;;;;;;;;;;;;;;;-144.99;100.00;52647.84;5021909;28;19948;-67
2023/12/09 08:32:09;;;;;;;;;;;;;;;-144.99;100.00;52611.16;5026355;28;19929;-69
2023/12/09 08:34:35;;;;;;;;;;;;;;;-144.99;100.00;52651.94;5023154;28;19925;-69
2023/12/09 08:37:02;;;;;;;;;;;;;;;-144.99;100.00;52613.19;5025392;28;19960;-69
2023/12/09 08:39:28;;;;;;;;;;;;;;;-144.99;100.00;52631.53;5024559;28;20353;-69
2023/12/09 08:41:56;;;;;;;;;;;;;;;-144.99;100.00;52594.84;5027442;28;20016;-69
2023/12/09 08:44:23;;;;;;;;;;;;;;;-144.99;100.00;52643.78;5028409;28;20364;-70
2023/12/09 08:46:51;;;;;;;;;;;;;;;-144.99;100.00;52609.13;5025084;28;19976;-70
2023/12/09 08:49:17;;;;;;;;;;;;;;;-144.99;100.00;52647.84;5025757;28;19937;-70
2023/12/09 08:51:44;;;;;;;;;;;;;;;-144.99;100.00;52635.63;5025925;28;19990;-70
2023/12/09 08:54:11;;;;;;;;;;;;;;;-144.99;100.00;52635.63;5027590;28;19929;-70
2023/12/09 08:56:38;;;;;;;;;;;;;;;-144.99;100.00;52627.47;5025237;28;19983;-71
2023/12/09 08:59:07;;;;;;;;;;;;;;;-144.99;100.00;52625.44;5026313;28;20363;-71
2023/12/09 09:01:34;;;;;;;;;;;;;;;-144.99;100.00;52643.78;5027737;28;20039;-70
2023/12/09 09:04:01;;;;;;;;;;;;;;;-144.99;100.00;52619.31;5026194;28;19944;-70
2023/12/09 09:06:27;;;;;;;;;;;;;;;-144.99;100.00;52643.78;5027645;28;19979;-69
2023/12/09 09:08:54;;;;;;;;;;;;;;;-144.99;100.00;52607.09;5027634;28;20355;-70
2023/12/09 09:11:20;;;;;;;;;;;;;;;-144.99;100.00;52615.25;5022450;28;19980;-71
2023/12/09 09:13:47;;;;;;;;;;;;;;;-144.99;100.00;52603.00;5027926;28;19948;-71
2023/12/09 09:16:16;;;;;;;;;;;;;;;-144.99;100.00;52623.38;5023627;28;20343;-71
2023/12/09 09:18:43;;;;;;;;;;;;;;;-144.99;100.00;52607.09;5027971;28;19929;-71
2023/12/09 09:21:09;;;;;;;;;;;;;;;-144.99;100.00;52603.00;5021798;28;19935;-70
2023/12/09 09:23:36;;;;;;;;;;;;;;;-144.99;100.00;52586.69;5027766;28;20444;-72
2023/12/09 09:26:02;;;;;;;;;;;;;;;-144.99;100.00;52605.03;5027018;28;19976;-70
2023/12/09 09:28:28;;;;;;;;;;;;;;;-144.99;100.00;52574.47;5027495;28;20091;-71
2023/12/09 09:30:55;;;;;;;;;;;;;;;-144.99;100.00;52598.94;5026664;28;19983;-71
2023/12/09 09:33:23;;;;;;;;;;;;;;;-144.99;100.00;52647.84;5019322;28;19932;-71
2023/12/09 09:35:52;;;;;;;;;;;;;;;-144.99;100.00;52619.31;5027315;28;20011;-71
2023/12/09 09:38:19;;;;;;;;;;;;;;;-144.99;100.00;52631.53;5028550;28;19999;-71
2023/12/09 09:40:45;;;;;;;;;;;;;;;-144.99;100.00;52660.09;5030738;28;20052;-70
2023/12/09 09:43:15;;;;;;;;;;;;;;;-144.99;100.00;52619.31;5027497;28;19984;-71
2023/12/09 09:45:45;;;;;;;;;;;;;;;-144.99;100.00;52631.53;5031760;28;19969;-71
2023/12/09 09:48:12;;;;;;;;;;;;;;;-144.99;100.00;52584.66;5030948;28;20024;-71
2023/12/09 09:50:41;;;;;;;;;;;;;;;-144.99;100.00;52611.16;5018743;28;19925;-71
2023/12/09 09:53:08;;;;;;;;;;;;;;;-144.99;100.00;52639.69;5029378;28;20266;-71
2023/12/09 09:55:35;;;;;;;;;;;;;;;-144.99;100.00;52623.38;5027932;28;19925;-72
2023/12/09 09:58:02;;;;;;;;;;;;;;;-144.99;100.00;52660.09;5027990;28;19929;-72
2023/12/09 10:00:30;;;;;;;;;;;;;;;-144.99;100.00;52656.00;5030293;28;19937;-72
2023/12/09 10:02:56;;;;;;;;;;;;;;;-144.99;100.00;52643.78;5030505;28;19975;-72
2023/12/09 10:05:23;;;;;;;;;;;;;;;-144.99;100.00;52613.19;5031331;28;19925;-73
2023/12/09 10:07:53;;;;;;;;;;;;;;;-144.99;100.00;52619.31;5029937;28;20020;-72
2023/12/09 10:10:19;;;;;;;;;;;;;;;-144.99;100.00;52627.47;5026198;28;19928;-72
2023/12/09 10:12:46;;;;;;;;;;;;;;;-144.99;100.00;52611.16;5029105;28;19976;-73
2023/12/09 10:15:13;;;;;;;;;;;;;;;-144.99;100.00;52598.94;5023304;28;20003;-73
2023/12/09 10:17:39;;;;;;;;;;;;;;;-144.99;100.00;52617.28;5025851;28;19983;-73
2023/12/09 10:20:08;;;;;;;;;;;;;;;-144.99;100.00;52596.88;5028443;28;19929;-73
2023/12/09 10:22:35;;;;;;;;;;;;;;;-144.99;100.00;52611.16;5031257;28;19936;-73
2023/12/09 10:25:03;;;;;;;;;;;;;;;-144.99;100.00;52527.59;5030637;28;19925;-73
2023/12/09 10:27:30;;;;;;;;;;;;;;;-144.99;100.00;52497.00;5029105;28;19925;-73
2023/12/09 10:29:57;;;;;;;;;;;;;;;-144.99;100.00;52541.84;5027244;28;19929;-74
2023/12/09 10:32:23;;;;;;;;;;;;;;;-144.99;100.00;52568.34;5027295;28;19929;-74
2023/12/09 10:34:50;;;;;;;;;;;;;;;-144.99;100.00;52592.81;5020566;28;20056;-73
2023/12/09 10:37:17;;;;;;;;;;;;;;;-144.99;100.00;52525.56;5029635;28;20300;-73
2023/12/09 10:39:44;;;;;;;;;;;;;;;-144.99;100.00;52574.47;5025544;28;20024;-71
2023/12/09 10:42:12;;;;;;;;;;;;;;;-144.99;100.00;52509.25;5026020;28;20393;-72
2023/12/09 10:44:39;;;;;;;;;;;;;;;-144.99;100.00;52497.00;5029185;28;19994;-71
2023/12/09 10:47:06;;;;;;;;;;;;;;;-144.99;100.00;52446.06;5026046;28;20438;-71
2023/12/09 10:49:33;;;;;;;;;;;;;;;-144.99;100.00;52472.56;5030478;28;19932;-71
2023/12/09 10:51:59;;;;;;;;;;;;;;;-144.99;100.00;52501.09;5031021;28;20020;-72
2023/12/09 10:54:26;;;;;;;;;;;;;;;-144.99;100.00;52574.47;5029855;28;19972;-73
2023/12/09 10:56:52;;;;;;;;;;;;;;;-144.99;100.00;52590.78;5029274;28;19925;-73
2023/12/09 10:59:20;;;;;;;;;;;;;;;-144.99;100.00;52607.09;5031148;28;20441;-72
2023/12/09 11:01:47;;;;;;;;;;;;;;;-144.99;100.00;52582.63;5018092;28;19961;-74
2023/12/09 11:04:14;;;;;;;;;;;;;;;-144.99;100.00;52582.63;5025995;28;19929;-74
2023/12/09 11:06:42;;;;;;;;;;;;;;;-144.99;100.00;52619.31;5026484;28;19936;-74
2023/12/09 11:09:09;;;;;;;;;;;;;;;-144.99;100.00;52647.84;5033788;28;20216;-74
2023/12/09 11:11:36;;;;;;;;;;;;;;;-144.99;100.00;52635.63;5030046;28;20379;-73
2023/12/09 11:14:07;;;;;;;;;;;;;;;-144.99;100.00;52611.16;5026009;28;19971;-74
2023/12/09 11:16:35;;;;;;;;;;;;;;;-144.99;100.00;52605.03;5029580;28;19925;-74
2023/12/09 11:19:01;;;;;;;;;;;;;;;-144.99;100.00;52578.53;5029720;28;20056;-73
2023/12/09 11:21:28;;;;;;;;;;;;;;;-144.99;100.00;52550.00;5027478;28;19968;-73
2023/12/09 11:23:55;;;;;;;;;;;;;;;-144.99;100.00;52501.09;5029408;28;20459;-74
2023/12/09 11:26:27;;;;;;;;;;;;;;;-144.99;100.00;52423.63;5026199;28;20044;-74
2023/12/09 11:29:01;;;;;;;;;;;;;;;-144.99;99.50;52368.59;5028810;28;19932;-73
2023/12/09 11:31:39;;;;;;;;;;;;;;;-144.99;93.30;52444.03;5028576;28;19931;-74
2023/12/09 11:34:07;;;;;;;;;;;;;;;-144.99;88.25;52452.16;5026416;28;19983;-74
2023/12/09 11:36:35;;;;;;;;;;;;;;;-144.99;86.14;52399.19;5026221;28;20026;-73
2023/12/09 11:39:04;;;;;;;;;;;;;;;-144.99;82.25;52409.38;5024337;28;19929;-74
2023/12/09 11:41:30;;;;;;;;;;;;;;;-144.99;82.13;52421.59;5026693;28;20012;-74
2023/12/09 11:43:58;;;;;;;;;;;;;;;-144.99;79.25;52444.03;5028902;28;20007;-75
2023/12/09 11:46:24;;;;;;;;;;;;;;;-144.99;77.82;52429.75;5026940;28;20013;-75
2023/12/09 11:48:54;;;;;;;;;;;;;;;-144.99;80.04;52439.94;5030823;28;20534;-75
2023/12/09 11:51:20;;;;;;;;;;;;;;;-144.99;82.05;52488.84;5028901;28;19988;-75
2023/12/09 11:53:54;;;;;;;;;;;;;;;-144.99;82.14;52480.72;5029435;28;19935;-74
2023/12/09 11:56:21;;;;;;;;;;;;;;;-144.99;80.28;52488.84;5026472;28;21422;-74
2023/12/09 11:58:47;;;;;;;;;;;;;;;-144.99;80.32;52541.84;5028888;28;19982;-74
2023/12/09 12:01:14;;;;;;;;;;;;;;;-144.99;82.64;52476.63;5026892;28;19983;-74
2023/12/09 12:03:40;;;;;;;;;;;;;;;-144.99;82.90;52554.09;5021570;28;19929;-74
2023/12/09 12:06:08;;;;;;;;;;;;;;;-144.99;82.86;52558.16;5027307;28;20328;-74
2023/12/09 12:08:35;;;;;;;;;;;;;;;-144.99;88.81;52598.94;5025151;28;20346;-74
2023/12/09 12:11:01;;;;;;;;;;;;;;;-144.99;91.24;52647.84;5028223;28;19951;-75
2023/12/09 12:13:28;;;;;;;;;;;;;;;-144.99;93.42;52619.31;5028088;28;19969;-74
2023/12/09 12:15:54;;;;;;;;;;;;;;;-144.99;95.17;52619.31;5025831;28;19929;-75